sensor_id;sensor_type;location;lat;lon;timestamp;temperature;humidity
18408;DHT22;9330;52.210;21.174;2023-05-07T00:01:16;5.90;99.90
18408;DHT22;9330;52.210;21.174;2023-05-07T00:03:43;5.80;99.90
18408;DHT22;9330;52.210;21.174;2023-05-07T00:06:12;5.90;99.90
18408;DHT22;9330;52.210;21.174;2023-05-07T00:08:38;5.80;99.90
18408;DHT22;9330;52.210;21.174;2023-05-07T00:11:05;5.80;99.90
18408;DHT22;9330;52.210;21.174;2023-05-07T00:13:32;6.00;99.90
18408;DHT22;9330;52.210;21.174;2023-05-07T00:16:01;5.70;99.90
18408;DHT22;9330;52.210;21.174;2023-05-07T00:18:28;5.70;99.90
18408;DHT22;9330;52.210;21.174;2023-05-07T00:20:55;5.70;99.90
18408;DHT22;9330;52.210;21.174;2023-05-07T00:23:24;5.80;99.90
18408;DHT22;9330;52.210;21.174;2023-05-07T00:25:51;5.70;99.90
18408;DHT22;9330;52.210;21.174;2023-05-07T00:28:17;6.00;99.90
18408;DHT22;9330;52.210;21.174;2023-05-07T00:30:44;5.80;99.90
18408;DHT22;9330;52.210;21.174;2023-05-07T00:33:11;6.00;99.90
18408;DHT22;9330;52.210;21.174;2023-05-07T00:35:38;5.70;99.90
18408;DHT22;9330;52.210;21.174;2023-05-07T00:38:06;5.80;99.90
18408;DHT22;9330;52.210;21.174;2023-05-07T00:40:35;5.70;99.90
18408;DHT22;9330;52.210;21.174;2023-05-07T00:43:02;5.70;99.90
18408;DHT22;9330;52.210;21.174;2023-05-07T00:45:29;5.70;99.90
18408;DHT22;9330;52.210;21.174;2023-05-07T00:47:58;5.70;99.90
18408;DHT22;9330;52.210;21.174;2023-05-07T00:50:26;5.70;99.90
18408;DHT22;9330;52.210;21.174;2023-05-07T00:52:54;5.60;99.90
18408;DHT22;9330;52.210;21.174;2023-05-07T00:55:22;5.60;99.90
18408;DHT22;9330;52.210;21.174;2023-05-07T00:57:51;5.60;99.90
18408;DHT22;9330;52.210;21.174;2023-05-07T01:00:18;5.60;99.90
18408;DHT22;9330;52.210;21.174;2023-05-07T01:02:45;5.60;99.90
18408;DHT22;9330;52.210;21.174;2023-05-07T01:05:15;5.70;99.90
18408;DHT22;9330;52.210;21.174;2023-05-07T01:07:42;5.70;99.90
18408;DHT22;9330;52.210;21.174;2023-05-07T01:10:10;5.50;99.90
18408;DHT22;9330;52.210;21.174;2023-05-07T01:12:38;5.80;99.90
18408;DHT22;9330;52.210;21.174;2023-05-07T01:15:09;5.50;99.90
18408;DHT22;9330;52.210;21.174;2023-05-07T01:17:37;5.50;99.90
18408;DHT22;9330;52.210;21.174;2023-05-07T01:20:07;5.50;99.90
18408;DHT22;9330;52.210;21.174;2023-05-07T01:22:36;5.60;99.90
18408;DHT22;9330;52.210;21.174;2023-05-07T01:25:04;5.60;99.90
18408;DHT22;9330;52.210;21.174;2023-05-07T01:27:32;5.50;99.90
18408;DHT22;9330;52.210;21.174;2023-05-07T01:30:00;5.50;99.90
18408;DHT22;9330;52.210;21.174;2023-05-07T01:32:31;5.50;99.90
18408;DHT22;9330;52.210;21.174;2023-05-07T01:35:00;5.50;99.90
18408;DHT22;9330;52.210;21.174;2023-05-07T01:37:28;5.50;99.90
18408;DHT22;9330;52.210;21.174;2023-05-07T01:39:57;5.50;99.90
18408;DHT22;9330;52.210;21.174;2023-05-07T01:42:24;5.40;99.90
18408;DHT22;9330;52.210;21.174;2023-05-07T01:44:51;5.50;99.90
18408;DHT22;9330;52.210;21.174;2023-05-07T01:47:19;5.50;99.90
18408;DHT22;9330;52.210;21.174;2023-05-07T01:49:47;5.40;99.90
18408;DHT22;9330;52.210;21.174;2023-05-07T01:52:14;5.40;99.90
18408;DHT22;9330;52.210;21.174;2023-05-07T01:54:41;5.40;99.90
18408;DHT22;9330;52.210;21.174;2023-05-07T01:57:09;5.40;99.90
18408;DHT22;9330;52.210;21.174;2023-05-07T01:59:36;5.40;99.90
18408;DHT22;9330;52.210;21.174;2023-05-07T02:02:03;5.30;99.90
18408;DHT22;9330;52.210;21.174;2023-05-07T02:04:30;5.40;99.90
18408;DHT22;9330;52.210;21.174;2023-05-07T02:06:57;5.40;99.90
18408;DHT22;9330;52.210;21.174;2023-05-07T02:09:24;5.40;99.90
18408;DHT22;9330;52.210;21.174;2023-05-07T02:11:51;5.50;99.90
18408;DHT22;9330;52.210;21.174;2023-05-07T02:14:19;5.40;99.90
18408;DHT22;9330;52.210;21.174;2023-05-07T02:16:47;5.40;99.90
18408;DHT22;9330;52.210;21.174;2023-05-07T02:19:13;5.40;99.90
18408;DHT22;9330;52.210;21.174;2023-05-07T02:21:41;5.40;99.90
18408;DHT22;9330;52.210;21.174;2023-05-07T02:24:08;5.40;99.90
18408;DHT22;9330;52.210;21.174;2023-05-07T02:26:35;5.50;99.90
18408;DHT22;9330;52.210;21.174;2023-05-07T02:29:02;5.40;99.90
18408;DHT22;9330;52.210;21.174;2023-05-07T02:31:31;5.40;99.90
18408;DHT22;9330;52.210;21.174;2023-05-07T02:33:59;5.40;99.90
18408;DHT22;9330;52.210;21.174;2023-05-07T02:36:27;5.40;99.90
18408;DHT22;9330;52.210;21.174;2023-05-07T02:38:54;5.40;99.90
18408;DHT22;9330;52.210;21.174;2023-05-07T02:41:21;5.40;99.90
18408;DHT22;9330;52.210;21.174;2023-05-07T02:43:48;5.40;99.90
18408;DHT22;9330;52.210;21.174;2023-05-07T02:46:15;5.40;99.90
18408;DHT22;9330;52.210;21.174;2023-05-07T02:48:43;5.50;99.90
18408;DHT22;9330;52.210;21.174;2023-05-07T02:51:10;5.50;99.90
18408;DHT22;9330;52.210;21.174;2023-05-07T02:53:37;5.30;99.90
18408;DHT22;9330;52.210;21.174;2023-05-07T02:56:05;5.30;99.90
18408;DHT22;9330;52.210;21.174;2023-05-07T02:58:32;5.30;99.90
18408;DHT22;9330;52.210;21.174;2023-05-07T03:01:00;5.40;99.90
18408;DHT22;9330;52.210;21.174;2023-05-07T03:03:27;5.40;99.90
18408;DHT22;9330;52.210;21.174;2023-05-07T03:05:55;5.30;99.90
18408;DHT22;9330;52.210;21.174;2023-05-07T03:08:22;5.40;99.90
18408;DHT22;9330;52.210;21.174;2023-05-07T03:10:49;5.40;99.90
18408;DHT22;9330;52.210;21.174;2023-05-07T03:13:16;5.50;99.90
18408;DHT22;9330;52.210;21.174;2023-05-07T03:15:43;5.40;99.90
18408;DHT22;9330;52.210;21.174;2023-05-07T03:18:11;5.30;99.90
18408;DHT22;9330;52.210;21.174;2023-05-07T03:20:37;5.30;99.90
18408;DHT22;9330;52.210;21.174;2023-05-07T03:23:06;5.30;99.90
18408;DHT22;9330;52.210;21.174;2023-05-07T03:25:33;5.30;99.90
18408;DHT22;9330;52.210;21.174;2023-05-07T03:28:00;5.30;99.90
18408;DHT22;9330;52.210;21.174;2023-05-07T03:30:27;5.50;99.90
18408;DHT22;9330;52.210;21.174;2023-05-07T03:32:55;5.40;99.90
18408;DHT22;9330;52.210;21.174;2023-05-07T03:35:21;5.30;99.90
18408;DHT22;9330;52.210;21.174;2023-05-07T03:37:48;5.50;99.90
18408;DHT22;9330;52.210;21.174;2023-05-07T03:40:17;5.60;99.90
18408;DHT22;9330;52.210;21.174;2023-05-07T03:42:44;5.40;99.90
18408;DHT22;9330;52.210;21.174;2023-05-07T03:45:11;5.60;99.90
18408;DHT22;9330;52.210;21.174;2023-05-07T03:47:38;5.40;99.90
18408;DHT22;9330;52.210;21.174;2023-05-07T03:50:06;5.40;99.90
18408;DHT22;9330;52.210;21.174;2023-05-07T03:52:33;5.40;99.90
18408;DHT22;9330;52.210;21.174;2023-05-07T03:55:00;5.40;99.90
18408;DHT22;9330;52.210;21.174;2023-05-07T03:57:29;5.40;99.90
18408;DHT22;9330;52.210;21.174;2023-05-07T03:59:56;5.40;99.90
18408;DHT22;9330;52.210;21.174;2023-05-07T04:02:23;5.40;99.90
18408;DHT22;9330;52.210;21.174;2023-05-07T04:04:50;5.40;99.90
18408;DHT22;9330;52.210;21.174;2023-05-07T04:07:17;5.40;99.90
18408;DHT22;9330;52.210;21.174;2023-05-07T04:09:44;5.50;99.90
18408;DHT22;9330;52.210;21.174;2023-05-07T04:12:11;5.50;99.90
18408;DHT22;9330;52.210;21.174;2023-05-07T04:14:39;5.40;99.90
18408;DHT22;9330;52.210;21.174;2023-05-07T04:17:06;5.50;99.90
18408;DHT22;9330;52.210;21.174;2023-05-07T04:19:35;5.60;99.90
18408;DHT22;9330;52.210;21.174;2023-05-07T04:22:02;5.50;99.90
18408;DHT22;9330;52.210;21.174;2023-05-07T04:24:31;5.50;99.90
18408;DHT22;9330;52.210;21.174;2023-05-07T04:26:58;5.50;99.90
18408;DHT22;9330;52.210;21.174;2023-05-07T04:29:25;5.50;99.90
18408;DHT22;9330;52.210;21.174;2023-05-07T04:31:54;5.40;99.90
18408;DHT22;9330;52.210;21.174;2023-05-07T04:34:21;5.50;99.90
18408;DHT22;9330;52.210;21.174;2023-05-07T04:36:48;5.50;99.90
18408;DHT22;9330;52.210;21.174;2023-05-07T04:39:15;5.50;99.90
18408;DHT22;9330;52.210;21.174;2023-05-07T04:41:42;5.50;99.90
18408;DHT22;9330;52.210;21.174;2023-05-07T04:44:09;5.50;99.90
18408;DHT22;9330;52.210;21.174;2023-05-07T04:46:36;5.40;99.90
18408;DHT22;9330;52.210;21.174;2023-05-07T04:49:04;5.50;99.90
18408;DHT22;9330;52.210;21.174;2023-05-07T04:51:31;5.50;99.90
18408;DHT22;9330;52.210;21.174;2023-05-07T04:53:58;5.50;99.90
18408;DHT22;9330;52.210;21.174;2023-05-07T04:56:27;5.70;99.90
18408;DHT22;9330;52.210;21.174;2023-05-07T04:58:54;5.60;99.90
18408;DHT22;9330;52.210;21.174;2023-05-07T05:01:21;5.60;99.90
18408;DHT22;9330;52.210;21.174;2023-05-07T05:03:48;5.70;99.90
18408;DHT22;9330;52.210;21.174;2023-05-07T05:06:16;5.70;99.90
18408;DHT22;9330;52.210;21.174;2023-05-07T05:08:43;5.70;99.90
18408;DHT22;9330;52.210;21.174;2023-05-07T05:11:10;5.90;99.90
18408;DHT22;9330;52.210;21.174;2023-05-07T05:13:37;5.70;99.90
18408;DHT22;9330;52.210;21.174;2023-05-07T05:16:06;5.60;99.90
18408;DHT22;9330;52.210;21.174;2023-05-07T05:18:34;5.70;99.90
18408;DHT22;9330;52.210;21.174;2023-05-07T05:21:01;5.70;99.90
18408;DHT22;9330;52.210;21.174;2023-05-07T05:23:29;5.70;99.90
18408;DHT22;9330;52.210;21.174;2023-05-07T05:25:56;5.80;99.90
18408;DHT22;9330;52.210;21.174;2023-05-07T05:28:24;5.90;99.90
18408;DHT22;9330;52.210;21.174;2023-05-07T05:30:51;5.90;99.90
18408;DHT22;9330;52.210;21.174;2023-05-07T05:33:17;6.00;99.90
18408;DHT22;9330;52.210;21.174;2023-05-07T05:35:45;6.00;99.90
18408;DHT22;9330;52.210;21.174;2023-05-07T05:38:11;6.10;99.90
18408;DHT22;9330;52.210;21.174;2023-05-07T05:40:40;6.10;99.90
18408;DHT22;9330;52.210;21.174;2023-05-07T05:43:07;6.20;99.90
18408;DHT22;9330;52.210;21.174;2023-05-07T05:45:34;6.20;99.90
18408;DHT22;9330;52.210;21.174;2023-05-07T05:48:01;6.30;99.90
18408;DHT22;9330;52.210;21.174;2023-05-07T05:50:28;6.30;99.90
18408;DHT22;9330;52.210;21.174;2023-05-07T05:52:55;6.40;99.90
18408;DHT22;9330;52.210;21.174;2023-05-07T05:55:23;6.40;99.90
18408;DHT22;9330;52.210;21.174;2023-05-07T05:57:52;6.50;99.90
18408;DHT22;9330;52.210;21.174;2023-05-07T06:00:18;6.40;99.90
18408;DHT22;9330;52.210;21.174;2023-05-07T06:02:48;6.40;99.90
18408;DHT22;9330;52.210;21.174;2023-05-07T06:05:15;6.50;99.90
18408;DHT22;9330;52.210;21.174;2023-05-07T06:07:42;6.50;99.90
18408;DHT22;9330;52.210;21.174;2023-05-07T06:10:09;6.50;99.90
18408;DHT22;9330;52.210;21.174;2023-05-07T06:12:36;6.60;99.90
18408;DHT22;9330;52.210;21.174;2023-05-07T06:15:06;6.60;99.90
18408;DHT22;9330;52.210;21.174;2023-05-07T06:17:34;6.60;99.90
18408;DHT22;9330;52.210;21.174;2023-05-07T06:20:01;6.70;99.90
18408;DHT22;9330;52.210;21.174;2023-05-07T06:22:28;6.80;99.90
18408;DHT22;9330;52.210;21.174;2023-05-07T06:24:55;6.80;99.90
18408;DHT22;9330;52.210;21.174;2023-05-07T06:27:22;7.00;99.90
18408;DHT22;9330;52.210;21.174;2023-05-07T06:29:49;6.90;99.90
18408;DHT22;9330;52.210;21.174;2023-05-07T06:32:18;7.00;99.90
18408;DHT22;9330;52.210;21.174;2023-05-07T06:34:45;7.00;99.90
18408;DHT22;9330;52.210;21.174;2023-05-07T06:37:12;7.00;99.90
18408;DHT22;9330;52.210;21.174;2023-05-07T06:39:39;7.10;99.90
18408;DHT22;9330;52.210;21.174;2023-05-07T06:42:06;7.10;99.90
18408;DHT22;9330;52.210;21.174;2023-05-07T06:44:33;7.10;99.90
18408;DHT22;9330;52.210;21.174;2023-05-07T06:46:59;7.20;99.90
18408;DHT22;9330;52.210;21.174;2023-05-07T06:49:28;7.20;99.90
18408;DHT22;9330;52.210;21.174;2023-05-07T06:51:54;7.20;99.90
18408;DHT22;9330;52.210;21.174;2023-05-07T06:54:22;7.20;99.90
18408;DHT22;9330;52.210;21.174;2023-05-07T06:56:49;7.20;99.90
18408;DHT22;9330;52.210;21.174;2023-05-07T06:59:16;7.30;99.90
18408;DHT22;9330;52.210;21.174;2023-05-07T07:01:43;7.20;99.90
18408;DHT22;9330;52.210;21.174;2023-05-07T07:04:10;7.30;99.90
18408;DHT22;9330;52.210;21.174;2023-05-07T07:06:38;7.30;99.90
18408;DHT22;9330;52.210;21.174;2023-05-07T07:09:05;7.20;99.90
18408;DHT22;9330;52.210;21.174;2023-05-07T07:11:31;7.20;99.90
18408;DHT22;9330;52.210;21.174;2023-05-07T07:13:58;7.30;99.90
18408;DHT22;9330;52.210;21.174;2023-05-07T07:16:25;7.10;99.90
18408;DHT22;9330;52.210;21.174;2023-05-07T07:18:52;7.10;99.90
18408;DHT22;9330;52.210;21.174;2023-05-07T07:21:19;7.20;99.90
18408;DHT22;9330;52.210;21.174;2023-05-07T07:23:47;7.20;99.90
18408;DHT22;9330;52.210;21.174;2023-05-07T07:26:14;7.20;99.90
18408;DHT22;9330;52.210;21.174;2023-05-07T07:28:44;7.40;99.90
18408;DHT22;9330;52.210;21.174;2023-05-07T07:31:11;7.50;99.90
18408;DHT22;9330;52.210;21.174;2023-05-07T07:33:39;7.50;99.90
18408;DHT22;9330;52.210;21.174;2023-05-07T07:36:06;7.40;99.90
18408;DHT22;9330;52.210;21.174;2023-05-07T07:38:33;7.50;99.90
18408;DHT22;9330;52.210;21.174;2023-05-07T07:41:02;7.50;99.90
18408;DHT22;9330;52.210;21.174;2023-05-07T07:43:29;7.60;99.90
18408;DHT22;9330;52.210;21.174;2023-05-07T07:45:56;7.60;99.90
18408;DHT22;9330;52.210;21.174;2023-05-07T07:48:23;7.70;99.90
18408;DHT22;9330;52.210;21.174;2023-05-07T07:50:50;7.70;99.90
18408;DHT22;9330;52.210;21.174;2023-05-07T07:53:17;7.70;99.90
18408;DHT22;9330;52.210;21.174;2023-05-07T07:55:44;7.70;99.90
18408;DHT22;9330;52.210;21.174;2023-05-07T07:58:12;7.70;99.90
18408;DHT22;9330;52.210;21.174;2023-05-07T08:00:39;7.80;99.90
18408;DHT22;9330;52.210;21.174;2023-05-07T08:03:08;8.00;99.90
18408;DHT22;9330;52.210;21.174;2023-05-07T08:05:35;7.90;99.90
18408;DHT22;9330;52.210;21.174;2023-05-07T08:08:04;8.00;99.90
18408;DHT22;9330;52.210;21.174;2023-05-07T08:10:31;8.20;99.90
18408;DHT22;9330;52.210;21.174;2023-05-07T08:13:00;8.20;99.90
18408;DHT22;9330;52.210;21.174;2023-05-07T08:15:28;8.30;99.90
18408;DHT22;9330;52.210;21.174;2023-05-07T08:17:55;8.40;99.90
18408;DHT22;9330;52.210;21.174;2023-05-07T08:20:23;8.40;99.90
18408;DHT22;9330;52.210;21.174;2023-05-07T08:22:49;8.50;99.90
18408;DHT22;9330;52.210;21.174;2023-05-07T08:25:17;8.60;99.90
18408;DHT22;9330;52.210;21.174;2023-05-07T08:27:44;8.60;99.90
18408;DHT22;9330;52.210;21.174;2023-05-07T08:30:12;8.60;99.90
18408;DHT22;9330;52.210;21.174;2023-05-07T08:32:41;8.80;99.90
18408;DHT22;9330;52.210;21.174;2023-05-07T08:35:08;8.90;99.90
18408;DHT22;9330;52.210;21.174;2023-05-07T08:37:35;8.90;99.90
18408;DHT22;9330;52.210;21.174;2023-05-07T08:40:03;8.90;99.90
18408;DHT22;9330;52.210;21.174;2023-05-07T08:42:45;9.00;99.90
18408;DHT22;9330;52.210;21.174;2023-05-07T08:45:13;9.10;99.90
18408;DHT22;9330;52.210;21.174;2023-05-07T08:47:43;9.10;99.90
18408;DHT22;9330;52.210;21.174;2023-05-07T08:50:11;9.10;99.90
18408;DHT22;9330;52.210;21.174;2023-05-07T08:52:40;9.20;99.90
18408;DHT22;9330;52.210;21.174;2023-05-07T08:55:08;9.10;99.90
18408;DHT22;9330;52.210;21.174;2023-05-07T08:57:35;9.10;99.90
18408;DHT22;9330;52.210;21.174;2023-05-07T09:00:02;9.10;99.90
18408;DHT22;9330;52.210;21.174;2023-05-07T09:02:29;9.00;99.90
18408;DHT22;9330;52.210;21.174;2023-05-07T09:04:57;9.00;99.90
18408;DHT22;9330;52.210;21.174;2023-05-07T09:07:25;9.10;99.90
18408;DHT22;9330;52.210;21.174;2023-05-07T09:09:52;9.10;99.90
18408;DHT22;9330;52.210;21.174;2023-05-07T09:12:21;9.30;99.90
18408;DHT22;9330;52.210;21.174;2023-05-07T09:14:48;9.30;99.90
18408;DHT22;9330;52.210;21.174;2023-05-07T09:17:15;9.30;99.90
18408;DHT22;9330;52.210;21.174;2023-05-07T09:19:44;9.50;99.90
18408;DHT22;9330;52.210;21.174;2023-05-07T09:22:13;9.50;99.90
18408;DHT22;9330;52.210;21.174;2023-05-07T09:24:40;9.40;99.90
18408;DHT22;9330;52.210;21.174;2023-05-07T09:27:07;9.50;99.90
18408;DHT22;9330;52.210;21.174;2023-05-07T09:29:38;9.60;99.90
18408;DHT22;9330;52.210;21.174;2023-05-07T09:32:06;9.70;99.90
18408;DHT22;9330;52.210;21.174;2023-05-07T09:34:34;9.60;99.90
18408;DHT22;9330;52.210;21.174;2023-05-07T09:37:02;9.70;99.90
18408;DHT22;9330;52.210;21.174;2023-05-07T09:39:40;9.60;99.90
18408;DHT22;9330;52.210;21.174;2023-05-07T09:42:07;9.80;99.90
18408;DHT22;9330;52.210;21.174;2023-05-07T09:44:35;9.70;99.90
18408;DHT22;9330;52.210;21.174;2023-05-07T09:47:04;9.60;99.90
18408;DHT22;9330;52.210;21.174;2023-05-07T09:49:34;9.60;99.90
18408;DHT22;9330;52.210;21.174;2023-05-07T09:52:03;9.50;99.90
18408;DHT22;9330;52.210;21.174;2023-05-07T09:54:32;9.50;99.90
18408;DHT22;9330;52.210;21.174;2023-05-07T09:57:01;9.50;99.90
18408;DHT22;9330;52.210;21.174;2023-05-07T09:59:30;9.60;99.90
18408;DHT22;9330;52.210;21.174;2023-05-07T10:01:58;9.90;99.90
18408;DHT22;9330;52.210;21.174;2023-05-07T10:04:26;9.90;99.90
18408;DHT22;9330;52.210;21.174;2023-05-07T10:06:54;10.00;99.90
18408;DHT22;9330;52.210;21.174;2023-05-07T10:09:21;9.90;99.90
18408;DHT22;9330;52.210;21.174;2023-05-07T10:11:49;9.90;99.90
18408;DHT22;9330;52.210;21.174;2023-05-07T10:14:19;9.80;99.90
18408;DHT22;9330;52.210;21.174;2023-05-07T10:16:47;9.80;99.90
18408;DHT22;9330;52.210;21.174;2023-05-07T10:19:14;9.70;99.90
18408;DHT22;9330;52.210;21.174;2023-05-07T10:21:44;9.80;99.90
18408;DHT22;9330;52.210;21.174;2023-05-07T10:24:19;9.70;99.90
18408;DHT22;9330;52.210;21.174;2023-05-07T10:26:49;9.70;99.90
18408;DHT22;9330;52.210;21.174;2023-05-07T10:29:32;9.70;99.90
18408;DHT22;9330;52.210;21.174;2023-05-07T10:32:11;9.60;99.90
18408;DHT22;9330;52.210;21.174;2023-05-07T10:34:43;9.70;99.90
18408;DHT22;9330;52.210;21.174;2023-05-07T10:37:11;9.60;99.90
18408;DHT22;9330;52.210;21.174;2023-05-07T10:39:38;9.50;99.90
18408;DHT22;9330;52.210;21.174;2023-05-07T10:42:09;9.60;99.90
18408;DHT22;9330;52.210;21.174;2023-05-07T10:44:37;9.50;99.90
18408;DHT22;9330;52.210;21.174;2023-05-07T10:47:06;9.40;99.90
18408;DHT22;9330;52.210;21.174;2023-05-07T10:49:36;9.40;99.90
18408;DHT22;9330;52.210;21.174;2023-05-07T10:52:14;9.40;99.90
18408;DHT22;9330;52.210;21.174;2023-05-07T10:54:41;9.50;99.90
18408;DHT22;9330;52.210;21.174;2023-05-07T10:57:33;9.40;99.90
18408;DHT22;9330;52.210;21.174;2023-05-07T11:00:04;9.50;99.90
18408;DHT22;9330;52.210;21.174;2023-05-07T11:03:07;9.50;99.90
18408;DHT22;9330;52.210;21.174;2023-05-07T11:05:35;9.60;99.90
18408;DHT22;9330;52.210;21.174;2023-05-07T11:08:03;9.80;99.90
18408;DHT22;9330;52.210;21.174;2023-05-07T11:10:50;9.90;99.90
18408;DHT22;9330;52.210;21.174;2023-05-07T11:13:18;9.90;99.90
18408;DHT22;9330;52.210;21.174;2023-05-07T11:15:46;9.90;99.90
18408;DHT22;9330;52.210;21.174;2023-05-07T11:18:16;9.70;99.90
18408;DHT22;9330;52.210;21.174;2023-05-07T11:20:49;9.80;99.90
18408;DHT22;9330;52.210;21.174;2023-05-07T11:26:44;9.90;99.90
18408;DHT22;9330;52.210;21.174;2023-05-07T11:29:12;10.00;99.90
18408;DHT22;9330;52.210;21.174;2023-05-07T11:31:39;10.20;99.90
18408;DHT22;9330;52.210;21.174;2023-05-07T11:34:08;10.30;99.90
18408;DHT22;9330;52.210;21.174;2023-05-07T11:36:36;10.40;99.90
18408;DHT22;9330;52.210;21.174;2023-05-07T11:39:26;10.50;99.90
18408;DHT22;9330;52.210;21.174;2023-05-07T11:41:54;10.50;99.90
18408;DHT22;9330;52.210;21.174;2023-05-07T11:44:20;10.60;99.90
18408;DHT22;9330;52.210;21.174;2023-05-07T11:46:48;10.70;99.90
18408;DHT22;9330;52.210;21.174;2023-05-07T11:49:17;10.60;99.90
18408;DHT22;9330;52.210;21.174;2023-05-07T11:51:43;10.70;99.90
18408;DHT22;9330;52.210;21.174;2023-05-07T11:54:15;10.50;99.90
18408;DHT22;9330;52.210;21.174;2023-05-07T11:56:44;10.30;99.90
18408;DHT22;9330;52.210;21.174;2023-05-07T11:59:10;10.40;99.90
18408;DHT22;9330;52.210;21.174;2023-05-07T12:01:37;10.40;99.90
18408;DHT22;9330;52.210;21.174;2023-05-07T12:04:04;10.30;99.90
18408;DHT22;9330;52.210;21.174;2023-05-07T12:06:36;10.30;99.90
18408;DHT22;9330;52.210;21.174;2023-05-07T12:09:03;10.30;99.90
18408;DHT22;9330;52.210;21.174;2023-05-07T12:11:32;10.40;99.90
18408;DHT22;9330;52.210;21.174;2023-05-07T12:13:59;10.60;99.90
18408;DHT22;9330;52.210;21.174;2023-05-07T12:16:26;10.50;99.90
18408;DHT22;9330;52.210;21.174;2023-05-07T12:18:53;10.60;99.90
18408;DHT22;9330;52.210;21.174;2023-05-07T12:21:20;10.60;99.90
18408;DHT22;9330;52.210;21.174;2023-05-07T12:23:49;10.60;99.90
18408;DHT22;9330;52.210;21.174;2023-05-07T12:26:16;10.60;99.90
18408;DHT22;9330;52.210;21.174;2023-05-07T12:28:43;10.50;99.90
18408;DHT22;9330;52.210;21.174;2023-05-07T12:31:10;10.70;99.90
18408;DHT22;9330;52.210;21.174;2023-05-07T12:33:37;10.60;99.90
18408;DHT22;9330;52.210;21.174;2023-05-07T12:36:06;10.60;99.90
18408;DHT22;9330;52.210;21.174;2023-05-07T12:38:35;10.60;99.90
18408;DHT22;9330;52.210;21.174;2023-05-07T12:41:05;10.70;99.90
18408;DHT22;9330;52.210;21.174;2023-05-07T12:43:32;11.00;99.90
18408;DHT22;9330;52.210;21.174;2023-05-07T12:46:01;11.50;99.90
18408;DHT22;9330;52.210;21.174;2023-05-07T12:48:30;11.60;99.90
18408;DHT22;9330;52.210;21.174;2023-05-07T12:50:58;11.50;99.90
18408;DHT22;9330;52.210;21.174;2023-05-07T12:53:26;11.50;99.90
18408;DHT22;9330;52.210;21.174;2023-05-07T12:55:55;11.40;99.90
18408;DHT22;9330;52.210;21.174;2023-05-07T12:58:25;11.40;99.90
18408;DHT22;9330;52.210;21.174;2023-05-07T13:00:52;11.30;99.90
18408;DHT22;9330;52.210;21.174;2023-05-07T13:03:26;11.20;99.90
18408;DHT22;9330;52.210;21.174;2023-05-07T13:05:54;11.10;99.90
18408;DHT22;9330;52.210;21.174;2023-05-07T13:08:29;11.10;99.90
18408;DHT22;9330;52.210;21.174;2023-05-07T13:10:57;11.10;99.90
18408;DHT22;9330;52.210;21.174;2023-05-07T13:13:26;11.10;99.90
18408;DHT22;9330;52.210;21.174;2023-05-07T13:15:53;11.10;99.90
18408;DHT22;9330;52.210;21.174;2023-05-07T13:18:20;11.10;99.90
18408;DHT22;9330;52.210;21.174;2023-05-07T13:20:46;11.00;99.90
18408;DHT22;9330;52.210;21.174;2023-05-07T13:23:13;10.90;99.90
18408;DHT22;9330;52.210;21.174;2023-05-07T13:25:40;11.00;99.90
18408;DHT22;9330;52.210;21.174;2023-05-07T13:28:07;11.10;99.90
18408;DHT22;9330;52.210;21.174;2023-05-07T13:30:35;11.40;99.90
18408;DHT22;9330;52.210;21.174;2023-05-07T13:33:02;11.50;99.90
18408;DHT22;9330;52.210;21.174;2023-05-07T13:35:29;11.70;99.90
18408;DHT22;9330;52.210;21.174;2023-05-07T13:37:56;11.70;99.90
18408;DHT22;9330;52.210;21.174;2023-05-07T13:40:23;11.50;99.90
18408;DHT22;9330;52.210;21.174;2023-05-07T13:42:50;11.50;99.90
18408;DHT22;9330;52.210;21.174;2023-05-07T13:45:18;11.30;99.90
18408;DHT22;9330;52.210;21.174;2023-05-07T13:47:46;11.20;99.90
18408;DHT22;9330;52.210;21.174;2023-05-07T13:50:15;11.20;99.90
18408;DHT22;9330;52.210;21.174;2023-05-07T13:52:42;11.30;99.90
18408;DHT22;9330;52.210;21.174;2023-05-07T13:55:13;11.30;99.90
18408;DHT22;9330;52.210;21.174;2023-05-07T13:57:40;11.40;99.90
18408;DHT22;9330;52.210;21.174;2023-05-07T14:00:07;11.50;99.90
18408;DHT22;9330;52.210;21.174;2023-05-07T14:02:34;11.30;99.90
18408;DHT22;9330;52.210;21.174;2023-05-07T14:05:04;11.30;99.90
18408;DHT22;9330;52.210;21.174;2023-05-07T14:07:31;11.40;99.90
18408;DHT22;9330;52.210;21.174;2023-05-07T14:09:58;11.40;99.90
18408;DHT22;9330;52.210;21.174;2023-05-07T14:12:24;11.50;99.90
18408;DHT22;9330;52.210;21.174;2023-05-07T14:14:51;11.60;99.90
18408;DHT22;9330;52.210;21.174;2023-05-07T14:17:18;11.60;99.90
18408;DHT22;9330;52.210;21.174;2023-05-07T14:19:45;11.70;99.90
18408;DHT22;9330;52.210;21.174;2023-05-07T14:22:14;11.90;99.90
18408;DHT22;9330;52.210;21.174;2023-05-07T14:24:41;11.70;99.90
18408;DHT22;9330;52.210;21.174;2023-05-07T14:27:08;11.80;99.90
18408;DHT22;9330;52.210;21.174;2023-05-07T14:29:35;11.80;99.60
18408;DHT22;9330;52.210;21.174;2023-05-07T14:32:02;11.80;99.90
18408;DHT22;9330;52.210;21.174;2023-05-07T14:34:29;11.90;99.50
18408;DHT22;9330;52.210;21.174;2023-05-07T14:36:56;11.90;99.50
18408;DHT22;9330;52.210;21.174;2023-05-07T14:39:24;11.80;98.80
18408;DHT22;9330;52.210;21.174;2023-05-07T14:41:52;11.70;99.20
18408;DHT22;9330;52.210;21.174;2023-05-07T14:44:20;11.80;99.90
18408;DHT22;9330;52.210;21.174;2023-05-07T14:46:47;11.80;99.60
18408;DHT22;9330;52.210;21.174;2023-05-07T14:49:14;11.80;98.50
18408;DHT22;9330;52.210;21.174;2023-05-07T14:51:43;11.70;97.50
18408;DHT22;9330;52.210;21.174;2023-05-07T14:54:10;11.50;97.70
18408;DHT22;9330;52.210;21.174;2023-05-07T14:56:38;11.60;99.20
18408;DHT22;9330;52.210;21.174;2023-05-07T14:59:05;11.50;98.40
18408;DHT22;9330;52.210;21.174;2023-05-07T15:01:34;11.50;98.20
18408;DHT22;9330;52.210;21.174;2023-05-07T15:04:01;11.50;98.20
18408;DHT22;9330;52.210;21.174;2023-05-07T15:06:28;11.50;98.00
18408;DHT22;9330;52.210;21.174;2023-05-07T15:08:55;11.50;97.80
18408;DHT22;9330;52.210;21.174;2023-05-07T15:11:22;11.40;97.50
18408;DHT22;9330;52.210;21.174;2023-05-07T15:13:50;11.50;97.60
18408;DHT22;9330;52.210;21.174;2023-05-07T15:16:17;11.50;98.80
18408;DHT22;9330;52.210;21.174;2023-05-07T15:18:44;11.40;97.00
18408;DHT22;9330;52.210;21.174;2023-05-07T15:21:11;11.40;98.20
18408;DHT22;9330;52.210;21.174;2023-05-07T15:23:39;11.50;98.00
18408;DHT22;9330;52.210;21.174;2023-05-07T15:26:06;11.40;98.30
18408;DHT22;9330;52.210;21.174;2023-05-07T15:28:34;11.30;97.10
18408;DHT22;9330;52.210;21.174;2023-05-07T15:31:02;11.30;97.50
18408;DHT22;9330;52.210;21.174;2023-05-07T15:33:29;11.40;96.30
18408;DHT22;9330;52.210;21.174;2023-05-07T15:35:56;11.30;96.90
18408;DHT22;9330;52.210;21.174;2023-05-07T15:38:24;11.40;97.20
18408;DHT22;9330;52.210;21.174;2023-05-07T15:40:51;11.30;97.60
18408;DHT22;9330;52.210;21.174;2023-05-07T15:43:18;11.30;97.50
18408;DHT22;9330;52.210;21.174;2023-05-07T15:45:46;11.30;97.00
18408;DHT22;9330;52.210;21.174;2023-05-07T15:48:14;11.40;96.20
18408;DHT22;9330;52.210;21.174;2023-05-07T15:50:41;11.30;96.20